Airfield :
LOGIN :

Register | Disclaimer

   EN    FR    IT 

 










Legend :    VFR   Marginal VFR   IFR   Intensive IFR   Very Intensive IFR
Visi :
Ceiling :
>= 8 km
>= 3000ft
5 to 8 km
1000 to 3000 ft
1500m to 5 km
500 to 1000 ft
800 to 1500m
200 to 500 ft
< 800m
< 200 ft
Symbols :   Thunderstorms  Fog  Heavy snow  Heavy precipitations  Wind > 20 kt
SIGMETs :     Misc.  Thunderstorms  Icing  Turbulence  Mountain Waves  Volcanic Ashes







- Airport Elevation : 276 ft


LYVR - Vršac International

CURRENT METAR :
  • 151800Z VRB06KT CAVOK 22/11 Q1011 NOSIG

EXPIRED METARs :
  • 151730Z VRB08KT 9999 FEW040 23/10 Q1011 NOSIG
  • 151700Z 34010KT 9999 FEW040 24/10 Q1011 NOSIG
  • 151630Z 35011KT 250V050 9999 FEW043 25/11 Q1010 NOSIG
  • 151600Z 32010KT 9999 FEW046 25/11 Q1010 NOSIG
  • 151530Z 33011KT 9999 SCT046 25/11 Q1010 NOSIG

TAF TAF LYVR
Valid from the 15 at 18:00 until the 16 at 18:00 UTC


151700Z 1518/1618 33008KT CAVOK TX26/1613Z TN12/1603Z
TEMPO 1603/1606 3000 BR
No reported NOTAMs for that airfield.



MET'MAP, your aeronautical weather chart ! - Copyright ORBIFLY December 2007 - Disclaimer

ORBIFLY MET'MAP TEAM :

Programming & Development : Alexandra Zaïnal
Concept & Development : Baudouin d'Aumeries
Co-Development & Prog : Marc-Olivier Méhu
Technical & hardware support : Manuel Goepfert

Contact : metmap@orbifly.com




SOURCES & CREDITS :

   NOAA